Redmond, Utah
Current Conditions -  °F | °C
As of 4:35 PM on Sunday 21 Dec 2014 (Local Time) from KDTA Reporting Station
Overcast Overcast  
Wind Chill: 45°   Ceiling: 5500
Heat Index: 47°   Visibility: 10mi
Dew Point: 37°   Wind: 6mph
Humidity: 68%   Direction: 320°NW
Pressure: 30"   Gusts: NA
Location:  39.01°N, 111.86°W
Report Text: KDTA 212335Z AUTO 32005KT 10SM BKN055 OVC080 09/03 A3000 RMK AO1 T00850029
Loading
Personal Weather Stations






























Interactive Weather Map New forecast layout! Learn more

10-Day Weather Forecast

Advertisements
Track Severe Weather on mobile